createdAt,value
2018-12-12T00:00:20.405Z,17.80
2018-12-12T00:00:53.138Z,17.78
2018-12-12T00:01:26.247Z,17.81
2018-12-12T00:01:58.954Z,17.79
2018-12-12T00:02:31.723Z,17.78
2018-12-12T00:03:04.514Z,17.75
2018-12-12T00:03:37.232Z,17.79
2018-12-12T00:04:10.045Z,17.78
2018-12-12T00:04:42.922Z,17.73
2018-12-12T00:05:15.863Z,17.69
2018-12-12T00:05:48.608Z,17.69
2018-12-12T00:06:21.525Z,17.69
2018-12-12T00:06:54.337Z,17.70
2018-12-12T00:07:27.350Z,17.72
2018-12-12T00:08:00.081Z,17.65
2018-12-12T00:08:32.884Z,17.68
2018-12-12T00:09:05.431Z,17.72
2018-12-12T00:09:39.120Z,17.72
2018-12-12T00:10:11.910Z,17.70
2018-12-12T00:10:44.672Z,17.72
2018-12-12T00:11:18.141Z,17.76
2018-12-12T00:11:50.831Z,17.79
2018-12-12T00:12:23.499Z,17.78
2018-12-12T00:12:56.340Z,17.76
2018-12-12T00:13:29.295Z,17.71
2018-12-12T00:14:02.838Z,17.74
2018-12-12T00:14:35.574Z,17.73
2018-12-12T00:15:08.448Z,17.74
2018-12-12T00:15:41.180Z,17.73
2018-12-12T00:16:13.975Z,17.73
2018-12-12T00:16:47.071Z,17.68
2018-12-12T00:17:20.016Z,17.69
2018-12-12T00:17:52.753Z,17.69
2018-12-12T00:18:25.800Z,17.67
2018-12-12T00:18:58.674Z,17.68
2018-12-12T00:19:31.069Z,17.66
2018-12-12T00:20:03.788Z,17.61
2018-12-12T00:20:36.351Z,17.59
2018-12-12T00:21:09.323Z,17.59
2018-12-12T00:21:42.025Z,17.62
2018-12-12T00:22:14.795Z,17.66
2018-12-12T00:22:47.617Z,17.66
2018-12-12T00:23:20.527Z,17.62
2018-12-12T00:23:53.394Z,17.61
2018-12-12T00:24:26.534Z,17.58
2018-12-12T00:24:59.496Z,17.60
2018-12-12T00:25:32.371Z,17.57
2018-12-12T00:26:05.295Z,17.56
2018-12-12T00:26:38.962Z,17.55
2018-12-12T00:27:11.662Z,17.59
2018-12-12T00:27:44.661Z,17.61
2018-12-12T00:28:17.374Z,17.59
2018-12-12T00:28:50.151Z,17.59
2018-12-12T00:29:22.800Z,17.57
2018-12-12T00:29:55.681Z,17.57
2018-12-12T00:30:28.631Z,17.58
2018-12-12T00:31:01.550Z,17.60
2018-12-12T00:31:34.632Z,17.59
2018-12-12T00:32:07.479Z,17.62
2018-12-12T00:32:40.339Z,17.62
2018-12-12T00:33:13.590Z,17.59
2018-12-12T00:33:46.443Z,17.57
2018-12-12T00:34:19.108Z,17.57
2018-12-12T00:34:51.968Z,17.60
2018-12-12T00:35:24.995Z,17.62
2018-12-12T00:35:57.426Z,17.66
2018-12-12T00:36:30.264Z,17.68
2018-12-12T00:37:03.078Z,17.71
2018-12-12T00:37:35.921Z,17.73
2018-12-12T00:38:08.648Z,17.69
2018-12-12T00:38:41.521Z,17.69
2018-12-12T00:39:14.422Z,17.71
2018-12-12T00:39:47.447Z,17.76
2018-12-12T00:40:20.364Z,17.78
2018-12-12T00:40:53.326Z,17.74
2018-12-12T00:41:26.115Z,17.65
2018-12-12T00:41:58.894Z,17.66
2018-12-12T00:42:32.039Z,17.66
2018-12-12T00:43:04.685Z,17.67
2018-12-12T00:43:38.293Z,17.68
2018-12-12T00:44:11.256Z,17.66
2018-12-12T00:44:44.547Z,17.62
2018-12-12T00:45:17.503Z,17.61
2018-12-12T00:45:50.240Z,17.62
2018-12-12T00:46:23.287Z,17.62
2018-12-12T00:46:55.847Z,17.58
2018-12-12T00:47:28.854Z,17.61
2018-12-12T00:48:01.535Z,17.61
2018-12-12T00:48:34.718Z,17.61
2018-12-12T00:49:07.635Z,17.62
2018-12-12T00:49:40.413Z,17.61
2018-12-12T00:50:13.524Z,17.59
2018-12-12T00:50:46.077Z,17.60
2018-12-12T00:51:18.766Z,17.60
2018-12-12T00:51:51.483Z,17.57
2018-12-12T00:52:24.471Z,17.56
2018-12-12T00:52:57.085Z,17.58
2018-12-12T00:53:29.812Z,17.58
2018-12-12T00:54:02.359Z,17.59
2018-12-12T00:54:35.232Z,17.60
2018-12-12T00:55:08.116Z,17.58
2018-12-12T00:55:40.842Z,17.58
2018-12-12T00:56:13.772Z,17.57
2018-12-12T00:56:46.938Z,17.51
2018-12-12T00:57:19.796Z,17.48
2018-12-12T00:57:52.659Z,17.49
2018-12-12T00:58:25.474Z,17.54
2018-12-12T00:58:58.323Z,17.55
2018-12-12T00:59:31.210Z,17.58
2018-12-12T01:00:04.281Z,17.60
2018-12-12T01:00:37.107Z,17.57
2018-12-12T01:01:10.111Z,17.56
2018-12-12T01:01:42.863Z,17.60
2018-12-12T01:02:15.690Z,17.60
2018-12-12T01:02:48.725Z,17.60
2018-12-12T01:03:21.520Z,17.58
2018-12-12T01:03:54.359Z,17.57
2018-12-12T01:04:27.253Z,17.55
2018-12-12T01:05:00.016Z,17.54
2018-12-12T01:05:33.049Z,17.54
2018-12-12T01:06:06.479Z,17.55
2018-12-12T01:06:39.469Z,17.56
2018-12-12T01:07:12.138Z,17.57
2018-12-12T01:07:44.762Z,17.58
2018-12-12T01:08:17.698Z,17.56
2018-12-12T01:08:50.397Z,17.54
2018-12-12T01:09:23.848Z,17.55
2018-12-12T01:09:56.709Z,17.54
2018-12-12T01:10:29.531Z,17.54
2018-12-12T01:11:02.087Z,17.57
2018-12-12T01:11:34.533Z,17.60
2018-12-12T01:12:07.232Z,17.62
2018-12-12T01:12:39.885Z,17.63
2018-12-12T01:13:12.717Z,17.63
2018-12-12T01:13:45.840Z,17.64
2018-12-12T01:14:18.394Z,17.61
2018-12-12T01:14:51.229Z,17.63
2018-12-12T01:15:24.056Z,17.64
2018-12-12T01:15:56.943Z,17.63
2018-12-12T01:16:29.881Z,17.62
2018-12-12T01:17:02.954Z,17.61
2018-12-12T01:17:35.699Z,17.62
2018-12-12T01:18:10.054Z,17.63
2018-12-12T01:18:43.057Z,17.65
2018-12-12T01:19:15.701Z,17.64
2018-12-12T01:19:48.731Z,17.61
2018-12-12T01:20:21.424Z,17.60
2018-12-12T01:20:54.409Z,17.62
2018-12-12T01:21:27.184Z,17.60
2018-12-12T01:22:00.378Z,17.64
2018-12-12T01:22:33.020Z,17.70
2018-12-12T01:23:06.099Z,17.73
2018-12-12T01:23:38.934Z,17.68
2018-12-12T01:24:11.699Z,17.67
2018-12-12T01:24:44.377Z,17.62
2018-12-12T01:25:17.023Z,17.59
2018-12-12T01:25:49.637Z,17.54
2018-12-12T01:26:22.461Z,17.57
2018-12-12T01:26:55.818Z,17.58
2018-12-12T01:27:28.398Z,17.61
2018-12-12T01:28:01.081Z,17.59
2018-12-12T01:28:34.044Z,17.58
2018-12-12T01:29:06.863Z,17.59
2018-12-12T01:29:39.428Z,17.54
2018-12-12T01:30:12.289Z,17.54
2018-12-12T01:30:45.042Z,17.52
2018-12-12T01:31:18.401Z,17.54
2018-12-12T01:31:51.196Z,17.55
2018-12-12T01:32:24.367Z,17.55
2018-12-12T01:32:57.426Z,17.53
2018-12-12T01:33:30.018Z,17.53
2018-12-12T01:34:02.765Z,17.52
2018-12-12T01:34:35.403Z,17.53
2018-12-12T01:35:08.243Z,17.57
2018-12-12T01:35:41.218Z,17.56
2018-12-12T01:36:13.999Z,17.55
2018-12-12T01:36:46.985Z,17.56
2018-12-12T01:37:19.872Z,17.55
2018-12-12T01:37:52.817Z,17.56
2018-12-12T01:38:25.675Z,17.56
2018-12-12T01:38:58.708Z,17.56
2018-12-12T01:39:31.743Z,17.55
2018-12-12T01:40:05.032Z,17.54
2018-12-12T01:40:37.929Z,17.56
2018-12-12T01:41:10.376Z,17.56
2018-12-12T01:41:43.146Z,17.57
2018-12-12T01:42:15.543Z,17.57
2018-12-12T01:42:48.419Z,17.59
2018-12-12T01:43:21.855Z,17.61
2018-12-12T01:43:54.580Z,17.56
2018-12-12T01:44:27.904Z,17.55
2018-12-12T01:45:00.640Z,17.53
2018-12-12T01:45:33.575Z,17.52
2018-12-12T01:46:06.060Z,17.54
2018-12-12T01:46:38.960Z,17.52
2018-12-12T01:47:11.704Z,17.48
2018-12-12T01:47:44.633Z,17.49
2018-12-12T01:48:17.535Z,17.52
2018-12-12T01:48:50.425Z,17.53
2018-12-12T01:49:23.081Z,17.53
2018-12-12T01:49:55.994Z,17.51
2018-12-12T01:50:28.940Z,17.52
2018-12-12T01:51:01.754Z,17.54
2018-12-12T01:51:34.909Z,17.57
2018-12-12T01:52:07.740Z,17.51
2018-12-12T01:52:40.803Z,17.53
2018-12-12T01:53:13.841Z,17.56
2018-12-12T01:53:46.339Z,17.60
2018-12-12T01:54:19.247Z,17.64
2018-12-12T01:54:51.958Z,17.63
2018-12-12T01:55:24.827Z,17.62
2018-12-12T01:55:57.445Z,17.61
2018-12-12T01:56:30.145Z,17.58
2018-12-12T01:57:03.144Z,17.54
2018-12-12T01:57:35.907Z,17.56
2018-12-12T01:58:09.706Z,17.54
2018-12-12T01:58:42.440Z,17.52
2018-12-12T01:59:15.308Z,17.51
2018-12-12T01:59:48.235Z,17.51
2018-12-12T02:00:20.908Z,17.50
2018-12-12T02:00:53.943Z,17.55
2018-12-12T02:01:26.761Z,17.55
2018-12-12T02:01:59.587Z,17.51
2018-12-12T02:02:32.452Z,17.53
2018-12-12T02:03:05.443Z,17.53
2018-12-12T02:03:38.003Z,17.54
2018-12-12T02:04:10.730Z,17.52
2018-12-12T02:04:43.609Z,17.53
2018-12-12T02:05:16.568Z,17.53
2018-12-12T02:05:49.321Z,17.52
2018-12-12T02:06:22.408Z,17.53
2018-12-12T02:06:55.316Z,17.51
2018-12-12T02:07:28.237Z,17.54
2018-12-12T02:08:01.135Z,17.57
2018-12-12T02:08:33.631Z,17.58
2018-12-12T02:09:06.417Z,17.58
2018-12-12T02:09:39.315Z,17.56
2018-12-12T02:10:12.148Z,17.56
2018-12-12T02:10:45.195Z,17.54
2018-12-12T02:11:17.862Z,17.52
2018-12-12T02:11:50.496Z,17.53
2018-12-12T02:12:23.667Z,17.54
2018-12-12T02:12:56.387Z,17.54
2018-12-12T02:13:29.454Z,17.54
2018-12-12T02:14:02.233Z,17.50
2018-12-12T02:14:35.204Z,17.48
2018-12-12T02:15:08.576Z,17.48
2018-12-12T02:15:41.279Z,17.46
2018-12-12T02:16:13.994Z,17.47
2018-12-12T02:16:46.881Z,17.48
2018-12-12T02:17:19.610Z,17.50
2018-12-12T02:17:52.229Z,17.52
2018-12-12T02:18:25.010Z,17.55
2018-12-12T02:18:58.164Z,17.56
2018-12-12T02:19:30.674Z,17.56
2018-12-12T02:20:03.588Z,17.58
2018-12-12T02:20:36.193Z,17.59
2018-12-12T02:21:09.002Z,17.56
2018-12-12T02:21:41.877Z,17.56
2018-12-12T02:22:14.818Z,17.53
2018-12-12T02:22:47.767Z,17.50
2018-12-12T02:23:20.790Z,17.47
2018-12-12T02:23:54.137Z,17.49
2018-12-12T02:24:27.120Z,17.52
2018-12-12T02:25:00.833Z,17.53
2018-12-12T02:25:33.411Z,17.55
2018-12-12T02:26:06.038Z,17.56
2018-12-12T02:26:39.116Z,17.55
2018-12-12T02:27:11.961Z,17.54
2018-12-12T02:27:44.865Z,17.53
2018-12-12T02:28:17.572Z,17.56
2018-12-12T02:28:50.163Z,17.57
2018-12-12T02:29:22.952Z,17.54
2018-12-12T02:29:56.113Z,17.56
2018-12-12T02:30:29.053Z,17.54
2018-12-12T02:31:01.836Z,17.51
2018-12-12T02:31:34.384Z,17.48
2018-12-12T02:32:07.316Z,17.52
2018-12-12T02:32:40.074Z,17.49
2018-12-12T02:33:12.827Z,17.50
2018-12-12T02:33:45.615Z,17.50
2018-12-12T02:34:18.447Z,17.51
2018-12-12T02:34:51.082Z,17.54
2018-12-12T02:35:23.855Z,17.56
2018-12-12T02:35:56.649Z,17.54
2018-12-12T02:36:29.510Z,17.57
2018-12-12T02:37:02.381Z,17.55
2018-12-12T02:37:35.376Z,17.51
2018-12-12T02:38:08.132Z,17.49
2018-12-12T02:38:40.890Z,17.51
2018-12-12T02:39:14.461Z,17.48
2018-12-12T02:39:47.232Z,17.49
2018-12-12T02:40:19.922Z,17.51
2018-12-12T02:40:52.655Z,17.50
2018-12-12T02:41:25.609Z,17.52
2018-12-12T02:41:58.303Z,17.53
2018-12-12T02:42:31.168Z,17.52
2018-12-12T02:43:03.885Z,17.50
2018-12-12T02:43:37.096Z,17.51
2018-12-12T02:44:09.828Z,17.48
2018-12-12T02:44:42.759Z,17.48
2018-12-12T02:45:15.778Z,17.43
2018-12-12T02:45:48.120Z,17.41
2018-12-12T02:46:20.746Z,17.45
2018-12-12T02:46:53.776Z,17.46
2018-12-12T02:47:26.589Z,17.47
2018-12-12T02:47:59.606Z,17.41
2018-12-12T02:48:32.547Z,17.39
2018-12-12T02:49:05.244Z,17.37
2018-12-12T02:49:37.900Z,17.39
2018-12-12T02:50:10.486Z,17.39
2018-12-12T02:50:43.165Z,17.39
2018-12-12T02:51:16.070Z,17.42
2018-12-12T02:51:48.909Z,17.44
2018-12-12T02:52:21.413Z,17.44
2018-12-12T02:52:54.159Z,17.43
2018-12-12T02:53:26.876Z,17.46
2018-12-12T02:53:59.630Z,17.49
2018-12-12T02:54:32.436Z,17.49
2018-12-12T02:55:04.911Z,17.51
2018-12-12T02:55:37.851Z,17.52
2018-12-12T02:56:10.505Z,17.44
2018-12-12T02:56:43.430Z,17.42
2018-12-12T02:57:16.062Z,17.41
2018-12-12T02:57:48.684Z,17.41
2018-12-12T02:58:21.302Z,17.43
2018-12-12T02:58:54.097Z,17.46
2018-12-12T02:59:26.902Z,17.45
2018-12-12T02:59:59.684Z,17.46
2018-12-12T03:00:32.553Z,17.43
2018-12-12T03:01:05.392Z,17.47
2018-12-12T03:01:38.133Z,17.49
2018-12-12T03:02:10.898Z,17.52
2018-12-12T03:02:43.859Z,17.50
2018-12-12T03:03:16.865Z,17.48
2018-12-12T03:03:49.618Z,17.48
2018-12-12T03:04:22.568Z,17.50
2018-12-12T03:04:55.310Z,17.51
2018-12-12T03:05:27.966Z,17.48
2018-12-12T03:06:00.927Z,17.46
2018-12-12T03:06:33.705Z,17.46
2018-12-12T03:07:06.307Z,17.45
2018-12-12T03:07:38.977Z,17.42
2018-12-12T03:08:11.769Z,17.40
2018-12-12T03:08:44.325Z,17.40
2018-12-12T03:09:17.088Z,17.43
2018-12-12T03:09:49.844Z,17.47
2018-12-12T03:10:22.589Z,17.46
2018-12-12T03:10:55.336Z,17.46
2018-12-12T03:11:27.957Z,17.44
2018-12-12T03:12:00.668Z,17.46
2018-12-12T03:12:33.555Z,17.46
2018-12-12T03:13:06.400Z,17.46
2018-12-12T03:13:39.250Z,17.49
2018-12-12T03:14:12.424Z,17.49
2018-12-12T03:14:45.656Z,17.50
2018-12-12T03:15:18.441Z,17.45
2018-12-12T03:15:51.255Z,17.45
2018-12-12T03:16:24.099Z,17.45
2018-12-12T03:16:57.441Z,17.48
2018-12-12T03:17:30.147Z,17.51
2018-12-12T03:18:03.872Z,17.49
2018-12-12T03:18:36.808Z,17.50
2018-12-12T03:19:09.598Z,17.45
2018-12-12T03:19:42.341Z,17.42
2018-12-12T03:20:15.186Z,17.41
2018-12-12T03:20:48.038Z,17.43
2018-12-12T03:21:20.584Z,17.42
2018-12-12T03:21:53.222Z,17.44
2018-12-12T03:22:26.052Z,17.45
2018-12-12T03:22:58.858Z,17.46
2018-12-12T03:23:31.711Z,17.46
2018-12-12T03:24:04.806Z,17.47
2018-12-12T03:24:37.679Z,17.46
2018-12-12T03:25:10.604Z,17.46
2018-12-12T03:25:43.685Z,17.43
2018-12-12T03:26:16.543Z,17.46
2018-12-12T03:26:49.665Z,17.48
2018-12-12T03:27:22.894Z,17.46
2018-12-12T03:27:56.223Z,17.45
2018-12-12T03:28:28.894Z,17.44
2018-12-12T03:29:02.044Z,17.45
2018-12-12T03:29:34.922Z,17.43
2018-12-12T03:30:07.809Z,17.44
2018-12-12T03:30:40.745Z,17.49
2018-12-12T03:31:13.621Z,17.50
2018-12-12T03:31:45.820Z,17.50
2018-12-12T03:32:17.990Z,17.50
2018-12-12T03:32:50.286Z,17.47
2018-12-12T03:33:22.576Z,17.42
2018-12-12T03:33:55.369Z,17.40
2018-12-12T03:34:28.576Z,17.42
2018-12-12T03:35:01.508Z,17.42
2018-12-12T03:35:34.280Z,17.43
2018-12-12T03:36:07.182Z,17.41
2018-12-12T03:36:39.767Z,17.38
2018-12-12T03:37:12.440Z,17.38
2018-12-12T03:37:45.008Z,17.42
2018-12-12T03:38:17.568Z,17.44
2018-12-12T03:38:50.413Z,17.43
2018-12-12T03:39:23.119Z,17.44
2018-12-12T03:39:55.810Z,17.44
2018-12-12T03:40:28.767Z,17.42
2018-12-12T03:41:01.755Z,17.43
2018-12-12T03:41:34.433Z,17.46
2018-12-12T03:42:07.266Z,17.44
2018-12-12T03:42:40.311Z,17.43
2018-12-12T03:43:13.191Z,17.42
2018-12-12T03:43:45.850Z,17.42
2018-12-12T03:44:18.756Z,17.46
2018-12-12T03:44:51.507Z,17.50
2018-12-12T03:45:24.481Z,17.49
2018-12-12T03:45:57.234Z,17.46
2018-12-12T03:46:29.934Z,17.47
2018-12-12T03:47:02.854Z,17.48
2018-12-12T03:47:35.629Z,17.48
2018-12-12T03:48:08.153Z,17.42
2018-12-12T03:48:41.232Z,17.42
2018-12-12T03:49:14.683Z,17.42
2018-12-12T03:49:47.363Z,17.43
2018-12-12T03:50:20.194Z,17.45
2018-12-12T03:50:52.871Z,17.45
2018-12-12T03:51:25.697Z,17.44
2018-12-12T03:51:58.631Z,17.43
2018-12-12T03:52:31.490Z,17.39
2018-12-12T03:53:04.408Z,17.37
2018-12-12T03:53:37.653Z,17.40
2018-12-12T03:54:10.307Z,17.41
2018-12-12T03:54:43.044Z,17.40
2018-12-12T03:55:16.074Z,17.41
2018-12-12T03:55:48.846Z,17.40
2018-12-12T03:56:21.923Z,17.41
2018-12-12T03:56:54.624Z,17.41
2018-12-12T03:57:27.366Z,17.41
2018-12-12T03:58:00.543Z,17.40
2018-12-12T03:58:33.371Z,17.37
2018-12-12T03:59:06.336Z,17.40
2018-12-12T03:59:39.348Z,17.41
2018-12-12T04:00:11.812Z,17.42
2018-12-12T04:00:44.349Z,17.43
2018-12-12T04:01:17.239Z,17.45
2018-12-12T04:01:50.164Z,17.45
2018-12-12T04:02:22.879Z,17.45
2018-12-12T04:02:55.534Z,17.44
2018-12-12T04:03:28.246Z,17.44
2018-12-12T04:04:01.397Z,17.43
2018-12-12T04:04:34.586Z,17.44
2018-12-12T04:05:07.950Z,17.45
2018-12-12T04:05:41.077Z,17.43
2018-12-12T04:06:13.978Z,17.41
2018-12-12T04:06:46.885Z,17.40
2018-12-12T04:07:19.852Z,17.37
2018-12-12T04:07:52.749Z,17.38
2018-12-12T04:08:26.062Z,17.38
2018-12-12T04:08:58.967Z,17.39
2018-12-12T04:09:31.775Z,17.41
2018-12-12T04:10:04.589Z,17.38
2018-12-12T04:10:37.758Z,17.39
2018-12-12T04:11:10.520Z,17.39
2018-12-12T04:11:43.818Z,17.42
2018-12-12T04:12:16.430Z,17.41
2018-12-12T04:12:49.187Z,17.41
2018-12-12T04:13:21.668Z,17.42
2018-12-12T04:13:54.289Z,17.39
2018-12-12T04:14:26.800Z,17.39
2018-12-12T04:14:59.714Z,17.38
2018-12-12T04:15:32.400Z,17.38
2018-12-12T04:16:05.061Z,17.38
2018-12-12T04:16:37.704Z,17.38
2018-12-12T04:17:12.049Z,17.40
2018-12-12T04:17:45.110Z,17.41
2018-12-12T04:18:18.238Z,17.41
2018-12-12T04:18:51.192Z,17.43
2018-12-12T04:19:24.047Z,17.40
2018-12-12T04:19:57.017Z,17.38
2018-12-12T04:20:30.161Z,17.37
2018-12-12T04:21:02.860Z,17.35
2018-12-12T04:21:35.849Z,17.34
2018-12-12T04:22:08.839Z,17.37
2018-12-12T04:22:41.652Z,17.37
2018-12-12T04:23:14.495Z,17.38
2018-12-12T04:23:47.513Z,17.37
2018-12-12T04:24:20.302Z,17.35
2018-12-12T04:24:53.198Z,17.32
2018-12-12T04:25:26.207Z,17.33
2018-12-12T04:25:59.019Z,17.34
2018-12-12T04:26:31.907Z,17.37
2018-12-12T04:27:04.722Z,17.39
2018-12-12T04:27:37.374Z,17.43
2018-12-12T04:28:10.037Z,17.42
2018-12-12T04:28:42.885Z,17.39
2018-12-12T04:29:15.890Z,17.37
2018-12-12T04:29:48.777Z,17.36
2018-12-12T04:30:21.767Z,17.39
2018-12-12T04:30:54.772Z,17.37
2018-12-12T04:31:27.425Z,17.37
2018-12-12T04:32:00.410Z,17.37
2018-12-12T04:32:33.118Z,17.35
2018-12-12T04:33:05.842Z,17.34
2018-12-12T04:33:38.569Z,17.35
2018-12-12T04:34:11.226Z,17.38
2018-12-12T04:34:43.679Z,17.39
2018-12-12T04:35:17.038Z,17.39
2018-12-12T04:35:50.910Z,17.38
2018-12-12T04:36:23.649Z,17.38
2018-12-12T04:36:56.719Z,17.39
2018-12-12T04:37:29.721Z,17.39
2018-12-12T04:38:02.539Z,17.37
2018-12-12T04:38:35.258Z,17.36
2018-12-12T04:39:08.252Z,17.36
2018-12-12T04:39:40.826Z,17.36
2018-12-12T04:40:13.632Z,17.35
2018-12-12T04:40:46.621Z,17.33
2018-12-12T04:41:19.454Z,17.35
2018-12-12T04:41:52.372Z,17.37
2018-12-12T04:42:25.094Z,17.38
2018-12-12T04:42:57.993Z,17.39
2018-12-12T04:43:30.851Z,17.38
2018-12-12T04:44:03.951Z,17.37
2018-12-12T04:44:37.030Z,17.38
2018-12-12T04:45:10.999Z,17.40
2018-12-12T04:45:43.952Z,17.39
2018-12-12T04:46:16.923Z,17.38
2018-12-12T04:46:49.639Z,17.37
2018-12-12T04:47:22.350Z,17.37
2018-12-12T04:47:55.029Z,17.37
2018-12-12T04:48:27.952Z,17.35
2018-12-12T04:49:00.700Z,17.35
2018-12-12T04:49:33.480Z,17.38
2018-12-12T04:50:06.511Z,17.39
2018-12-12T04:50:39.322Z,17.38
2018-12-12T04:51:12.083Z,17.38
2018-12-12T04:51:44.812Z,17.39
2018-12-12T04:52:17.720Z,17.41
2018-12-12T04:52:50.690Z,17.40
2018-12-12T04:53:24.041Z,17.40
2018-12-12T04:53:56.861Z,17.39
2018-12-12T04:54:29.797Z,17.34
2018-12-12T04:55:02.516Z,17.33
2018-12-12T04:55:35.342Z,17.35
2018-12-12T04:56:08.081Z,17.35
2018-12-12T04:56:40.956Z,17.36
2018-12-12T04:57:13.803Z,17.36
2018-12-12T04:57:46.892Z,17.34
2018-12-12T04:58:19.461Z,17.35
2018-12-12T04:58:52.224Z,17.36
2018-12-12T04:59:25.081Z,17.37
2018-12-12T04:59:57.912Z,17.37
2018-12-12T05:00:30.870Z,17.38
2018-12-12T05:01:03.740Z,17.37
2018-12-12T05:01:36.592Z,17.38
2018-12-12T05:02:09.495Z,17.38
2018-12-12T05:02:42.372Z,17.42
2018-12-12T05:03:15.819Z,17.44
2018-12-12T05:03:49.543Z,17.43
2018-12-12T05:04:22.395Z,17.42
2018-12-12T05:04:55.154Z,17.41
2018-12-12T05:05:27.823Z,17.43
2018-12-12T05:06:00.375Z,17.40
2018-12-12T05:06:32.951Z,17.41
2018-12-12T05:07:05.947Z,17.40
2018-12-12T05:07:38.712Z,17.39
2018-12-12T05:08:11.545Z,17.36
2018-12-12T05:08:44.022Z,17.39
2018-12-12T05:09:16.801Z,17.37
2018-12-12T05:09:49.675Z,17.37
2018-12-12T05:10:22.353Z,17.31
2018-12-12T05:10:55.288Z,17.35
2018-12-12T05:11:27.997Z,17.35
2018-12-12T05:12:00.898Z,17.35
2018-12-12T05:12:33.795Z,17.32
2018-12-12T05:13:06.568Z,17.30
2018-12-12T05:13:39.376Z,17.29
2018-12-12T05:14:12.333Z,17.33
2018-12-12T05:14:45.032Z,17.31
2018-12-12T05:15:17.784Z,17.32
2018-12-12T05:15:50.746Z,17.33
2018-12-12T05:16:23.517Z,17.36
2018-12-12T05:16:56.391Z,17.37
2018-12-12T05:17:29.145Z,17.37
2018-12-12T05:18:01.712Z,17.35
2018-12-12T05:18:34.553Z,17.34
2018-12-12T05:19:07.248Z,17.35
2018-12-12T05:19:39.995Z,17.36
2018-12-12T05:20:12.817Z,17.35
2018-12-12T05:20:45.532Z,17.31
2018-12-12T05:21:18.584Z,17.29
2018-12-12T05:21:51.264Z,17.31
2018-12-12T05:22:25.293Z,17.32
2018-12-12T05:22:58.097Z,17.32
2018-12-12T05:23:30.800Z,17.32
2018-12-12T05:24:03.704Z,17.31
2018-12-12T05:24:36.555Z,17.33
2018-12-12T05:25:09.569Z,17.38
2018-12-12T05:25:42.322Z,17.39
2018-12-12T05:26:15.359Z,17.41
2018-12-12T05:26:48.066Z,17.39
2018-12-12T05:27:21.147Z,17.40
2018-12-12T05:27:54.120Z,17.39
2018-12-12T05:28:27.277Z,17.38
2018-12-12T05:29:00.146Z,17.37
2018-12-12T05:29:32.791Z,17.39
2018-12-12T05:30:05.427Z,17.41
2018-12-12T05:30:38.507Z,17.40
2018-12-12T05:31:11.586Z,17.38
2018-12-12T05:31:44.267Z,17.38
2018-12-12T05:32:17.194Z,17.38
2018-12-12T05:32:50.598Z,17.37
2018-12-12T05:33:23.235Z,17.35
2018-12-12T05:33:56.387Z,17.35
2018-12-12T05:34:29.419Z,17.35
2018-12-12T05:35:02.445Z,17.36
2018-12-12T05:35:35.057Z,17.36
2018-12-12T05:36:07.674Z,17.35
2018-12-12T05:36:40.545Z,17.33
2018-12-12T05:37:14.162Z,17.31
2018-12-12T05:37:51.867Z,17.31
2018-12-12T05:38:21.998Z,17.29
2018-12-12T05:38:54.498Z,17.27
2018-12-12T05:39:27.504Z,17.30
2018-12-12T05:40:00.245Z,17.34
2018-12-12T05:40:33.568Z,17.31
2018-12-12T05:41:06.495Z,17.29
2018-12-12T05:41:39.380Z,17.28
2018-12-12T05:42:12.444Z,17.29
2018-12-12T05:42:45.247Z,17.30
2018-12-12T05:43:18.128Z,17.32
2018-12-12T05:43:50.625Z,17.31
2018-12-12T05:44:23.417Z,17.29
2018-12-12T05:44:56.509Z,17.30
2018-12-12T05:45:29.391Z,17.29
2018-12-12T05:46:02.396Z,17.32
2018-12-12T05:46:34.874Z,17.31
2018-12-12T05:47:07.685Z,17.32
2018-12-12T05:47:40.576Z,17.31
2018-12-12T05:48:13.422Z,17.31
2018-12-12T05:48:46.125Z,17.31
2018-12-12T05:49:19.054Z,17.33
2018-12-12T05:49:51.767Z,17.33
2018-12-12T05:50:24.586Z,17.34
2018-12-12T05:50:57.506Z,17.31
2018-12-12T05:51:30.294Z,17.33
2018-12-12T05:52:02.999Z,17.32
2018-12-12T05:52:35.836Z,17.38
2018-12-12T05:53:08.764Z,17.52
2018-12-12T05:53:41.276Z,17.71
2018-12-12T05:54:14.126Z,17.94
2018-12-12T05:54:46.378Z,18.12
2018-12-12T05:55:19.207Z,18.27
2018-12-12T05:55:52.099Z,18.41
2018-12-12T05:56:25.046Z,18.51
2018-12-12T05:56:58.015Z,18.60
2018-12-12T05:57:31.146Z,18.66
2018-12-12T05:58:04.279Z,18.71
2018-12-12T05:58:37.350Z,18.77
2018-12-12T05:59:10.048Z,18.82
2018-12-12T05:59:42.910Z,18.85
2018-12-12T06:00:16.737Z,18.89
2018-12-12T06:00:50.126Z,18.91
2018-12-12T06:01:23.065Z,18.93
2018-12-12T06:01:55.706Z,18.96
2018-12-12T06:02:28.597Z,18.97
2018-12-12T06:03:01.594Z,19.00
2018-12-12T06:03:34.861Z,19.02
2018-12-12T06:04:07.788Z,19.02
2018-12-12T06:04:40.648Z,19.02
2018-12-12T06:05:13.295Z,19.05
2018-12-12T06:05:46.466Z,19.06
2018-12-12T06:06:19.265Z,19.06
2018-12-12T06:06:52.410Z,19.08
2018-12-12T06:07:25.056Z,19.08
2018-12-12T06:07:58.380Z,19.08
2018-12-12T06:08:31.292Z,19.10
2018-12-12T06:09:04.093Z,19.11
2018-12-12T06:09:37.034Z,19.11
2018-12-12T06:10:10.240Z,19.12
2018-12-12T06:10:43.096Z,19.14
2018-12-12T06:11:16.118Z,19.15
2018-12-12T06:11:49.277Z,19.16
2018-12-12T06:12:22.207Z,19.16
2018-12-12T06:12:57.988Z,19.16
2018-12-12T06:13:30.857Z,19.17
2018-12-12T06:14:04.629Z,19.17
2018-12-12T06:14:37.781Z,19.17
2018-12-12T06:15:10.687Z,19.18
2018-12-12T06:15:44.081Z,19.20
2018-12-12T06:16:17.791Z,19.21
2018-12-12T06:16:50.831Z,19.21
2018-12-12T06:17:23.656Z,19.21
2018-12-12T06:17:56.957Z,19.23
2018-12-12T06:18:29.718Z,19.24
2018-12-12T06:19:02.597Z,19.27
2018-12-12T06:19:35.837Z,19.31
2018-12-12T06:20:08.457Z,19.33
2018-12-12T06:20:41.302Z,19.36
2018-12-12T06:21:14.137Z,19.36
2018-12-12T06:21:46.928Z,19.37
2018-12-12T06:22:19.751Z,19.38
2018-12-12T06:22:52.604Z,19.40
2018-12-12T06:23:25.705Z,19.40
2018-12-12T06:23:58.252Z,19.40
2018-12-12T06:24:31.092Z,19.40
2018-12-12T06:25:03.823Z,19.41
2018-12-12T06:25:36.359Z,19.41
2018-12-12T06:26:09.263Z,19.40
2018-12-12T06:26:41.840Z,19.40
2018-12-12T06:27:14.813Z,19.40
2018-12-12T06:27:47.968Z,19.38
2018-12-12T06:28:20.889Z,19.39
2018-12-12T06:28:53.682Z,19.38
2018-12-12T06:29:26.458Z,19.38
2018-12-12T06:29:59.012Z,19.38
2018-12-12T06:30:31.723Z,19.40
2018-12-12T06:31:04.699Z,19.41
2018-12-12T06:31:37.380Z,19.42
2018-12-12T06:32:10.222Z,19.43
2018-12-12T06:32:42.970Z,19.44
2018-12-12T06:33:16.423Z,19.44
2018-12-12T06:33:49.523Z,19.44
2018-12-12T06:34:22.742Z,19.44
2018-12-12T06:34:55.628Z,19.46
2018-12-12T06:35:28.463Z,19.47
2018-12-12T06:36:01.499Z,19.47
2018-12-12T06:36:35.143Z,19.47
2018-12-12T06:37:07.966Z,19.47
2018-12-12T06:37:40.408Z,19.47
2018-12-12T06:38:13.143Z,19.48
2018-12-12T06:38:45.823Z,19.48
2018-12-12T06:39:18.557Z,19.48
2018-12-12T06:39:51.461Z,19.49
2018-12-12T06:40:24.293Z,19.50
2018-12-12T06:40:56.738Z,19.51
2018-12-12T06:41:29.495Z,19.51
2018-12-12T06:42:02.443Z,19.52
2018-12-12T06:42:35.582Z,19.51
2018-12-12T06:43:08.467Z,19.51
2018-12-12T06:43:41.349Z,19.53
2018-12-12T06:44:14.207Z,19.53
2018-12-12T06:44:46.672Z,19.54
2018-12-12T06:45:19.412Z,19.54
2018-12-12T06:45:52.311Z,19.54
2018-12-12T06:46:26.409Z,19.55
2018-12-12T06:46:59.558Z,19.55
2018-12-12T06:47:32.359Z,19.55
2018-12-12T06:48:05.037Z,19.55
2018-12-12T06:48:37.777Z,19.56
2018-12-12T06:49:10.692Z,19.57
2018-12-12T06:49:43.508Z,19.57
2018-12-12T06:50:16.229Z,19.58
2018-12-12T06:50:49.340Z,19.59
2018-12-12T06:51:22.119Z,19.58
2018-12-12T06:51:54.679Z,19.58
2018-12-12T06:52:27.298Z,19.59
2018-12-12T06:53:00.251Z,19.59
2018-12-12T06:53:33.014Z,19.59
2018-12-12T06:54:05.649Z,19.59
2018-12-12T06:54:38.320Z,19.60
2018-12-12T06:55:10.883Z,19.60
2018-12-12T06:55:43.592Z,19.61
2018-12-12T06:56:16.343Z,19.60
2018-12-12T06:56:49.288Z,19.61
2018-12-12T06:57:22.202Z,19.61
2018-12-12T06:57:54.712Z,19.61
2018-12-12T06:58:27.223Z,19.61
2018-12-12T06:59:00.222Z,19.61
2018-12-12T06:59:32.710Z,19.61
2018-12-12T07:00:05.439Z,19.62
2018-12-12T07:00:38.154Z,19.62
2018-12-12T07:01:11.139Z,19.64
2018-12-12T07:01:43.698Z,19.63
2018-12-12T07:02:17.093Z,19.62
2018-12-12T07:02:49.835Z,19.64
2018-12-12T07:03:22.819Z,19.63